Time;durP1;ratioP1;P1;durP2;ratioP2;P2;SDS_P1;SDS_P2;PMS_P1;PMS_P2;Temp;Humidity;BMP_temperature;BMP_pressure;BME280_temperature;BME280_humidity;BME280_pressure;Samples;Min_cycle;Max_cycle;Signal;HPM_P1;HPM_P2
2021/10/08 00:01:55;;;;;;;;;;;;;;;6.11;86.33;100079.98;111940;1196;61791;-89
2021/10/08 00:04:22;;;;;;;;;;;;;;;6.08;86.43;100079.39;111910;1196;66807;-89
2021/10/08 00:06:49;;;;;;;;;;;;;;;6.04;86.52;100080.77;111861;1196;61848;-87
2021/10/08 00:09:16;;;;;;;;;;;;;;;6.01;86.59;100084.55;111841;1196;63997;-87
2021/10/08 00:11:43;;;;;;;;;;;;;;;5.99;86.71;100085.33;111827;1196;61860;-87
2021/10/08 00:14:09;;;;;;;;;;;;;;;5.97;86.84;100087.14;111879;1196;61887;-87
2021/10/08 00:16:36;;;;;;;;;;;;;;;5.94;86.89;100093.58;111887;1196;65675;-87
2021/10/08 00:19:03;;;;;;;;;;;;;;;5.92;86.86;100095.73;111928;1196;61780;-87
2021/10/08 00:21:29;;;;;;;;;;;;;;;5.89;86.99;100093.88;111855;1196;64025;-89
2021/10/08 00:23:56;;;;;;;;;;;;;;;5.86;87.07;100092.36;111846;1196;61853;-87
2021/10/08 00:26:22;;;;;;;;;;;;;;;5.84;87.14;100095.59;111908;1196;61843;-88
2021/10/08 00:28:49;;;;;;;;;;;;;;;5.82;87.19;100097.96;111904;1196;61879;-88
2021/10/08 00:31:15;;;;;;;;;;;;;;;5.79;87.20;100099.81;111948;1196;61863;-88
2021/10/08 00:33:42;;;;;;;;;;;;;;;5.74;87.33;100097.66;111764;1196;61920;-90
2021/10/08 00:36:09;;;;;;;;;;;;;;;5.70;87.47;100100.42;111808;1196;61974;-88
2021/10/08 00:38:36;;;;;;;;;;;;;;;5.65;87.71;100100.40;111860;1196;61850;-88
2021/10/08 00:41:05;;;;;;;;;;;;;;;5.59;87.80;100102.50;111873;1196;65492;-88
2021/10/08 00:43:31;;;;;;;;;;;;;;;5.52;88.06;100102.35;111894;1196;61831;-87
2021/10/08 00:45:58;;;;;;;;;;;;;;;5.46;88.02;100104.80;111828;1196;61760;-88
2021/10/08 00:48:24;;;;;;;;;;;;;;;5.39;88.07;100104.85;111868;1196;61831;-88
2021/10/08 00:50:51;;;;;;;;;;;;;;;5.33;88.21;100103.96;111816;1196;61793;-88
2021/10/08 00:53:18;;;;;;;;;;;;;;;5.27;88.40;100106.75;111870;1196;66910;-88
2021/10/08 00:55:50;;;;;;;;;;;;;;;5.23;88.48;100107.02;111905;1196;61956;-88
2021/10/08 00:58:18;;;;;;;;;;;;;;;5.23;88.66;100110.40;111809;1196;64153;-88
2021/10/08 01:00:46;;;;;;;;;;;;;;;5.23;88.67;100113.23;111821;1196;61908;-88
2021/10/08 01:03:13;;;;;;;;;;;;;;;5.21;88.68;100115.91;111851;1196;61890;-88
2021/10/08 01:05:41;;;;;;;;;;;;;;;5.20;88.71;100117.52;111843;1196;65747;-88
2021/10/08 01:08:08;;;;;;;;;;;;;;;5.20;88.64;100115.07;112093;1196;61833;-88
2021/10/08 01:10:37;;;;;;;;;;;;;;;5.20;88.69;100114.37;112037;1196;62661;-88
2021/10/08 01:13:05;;;;;;;;;;;;;;;5.18;88.72;100115.09;111949;1196;61853;-87
2021/10/08 01:15:31;;;;;;;;;;;;;;;5.19;88.71;100118.09;111931;1197;61956;-88
2021/10/08 01:17:58;;;;;;;;;;;;;;;5.17;88.73;100121.13;112038;1196;66543;-88
2021/10/08 01:20:25;;;;;;;;;;;;;;;5.14;88.76;100118.91;111975;1196;61933;-88
2021/10/08 01:22:57;;;;;;;;;;;;;;;5.11;88.84;100121.46;111995;1196;63809;-87
2021/10/08 01:25:26;;;;;;;;;;;;;;;5.09;88.95;100120.45;112001;1196;61892;-88
2021/10/08 01:27:53;;;;;;;;;;;;;;;5.08;88.93;100118.37;111975;1196;61850;-88
2021/10/08 01:30:19;;;;;;;;;;;;;;;5.06;88.94;100119.66;111965;1196;65471;-88
2021/10/08 01:32:46;;;;;;;;;;;;;;;5.04;88.99;100119.70;111938;1196;61889;-88
2021/10/08 01:35:13;;;;;;;;;;;;;;;5.02;89.05;100119.05;111801;1196;62753;-87
2021/10/08 01:37:39;;;;;;;;;;;;;;;5.00;89.10;100119.45;111839;1196;61871;-88
2021/10/08 01:40:06;;;;;;;;;;;;;;;4.97;89.22;100120.76;111919;1196;61887;-88
2021/10/08 01:42:33;;;;;;;;;;;;;;;4.95;89.23;100119.95;111994;1196;65855;-87
2021/10/08 01:44:59;;;;;;;;;;;;;;;4.93;89.32;100118.76;112020;1196;61868;-88
2021/10/08 01:47:27;;;;;;;;;;;;;;;4.91;89.39;100122.85;111907;1196;64005;-88
2021/10/08 01:49:53;;;;;;;;;;;;;;;4.88;89.48;100119.25;111965;1196;62282;-87
2021/10/08 01:52:20;;;;;;;;;;;;;;;4.86;89.56;100116.48;111990;1196;61892;-86
2021/10/08 01:54:48;;;;;;;;;;;;;;;4.84;89.61;100115.82;111876;1196;66885;-88
2021/10/08 01:57:14;;;;;;;;;;;;;;;4.82;89.62;100117.97;111942;1196;61867;-90
2021/10/08 01:59:41;;;;;;;;;;;;;;;4.79;89.73;100123.52;112088;1196;72656;-87
2021/10/08 02:02:08;;;;;;;;;;;;;;;4.74;89.80;100124.88;112056;1196;61837;-86
2021/10/08 02:04:35;;;;;;;;;;;;;;;4.71;89.84;100130.57;112059;1196;61824;-87
2021/10/08 02:07:01;;;;;;;;;;;;;;;4.71;89.94;100127.23;111966;1196;66846;-88
2021/10/08 02:09:28;;;;;;;;;;;;;;;4.70;89.92;100127.24;111876;1196;61763;-88
2021/10/08 02:11:55;;;;;;;;;;;;;;;4.69;89.95;100126.59;111861;1196;62668;-88
2021/10/08 02:14:21;;;;;;;;;;;;;;;4.67;89.95;100125.58;111925;1196;61849;-87
2021/10/08 02:16:47;;;;;;;;;;;;;;;4.67;89.85;100124.00;111923;1196;61869;-87
2021/10/08 02:19:14;;;;;;;;;;;;;;;4.68;89.79;100126.79;111886;1196;61816;-88
2021/10/08 02:21:41;;;;;;;;;;;;;;;4.68;89.83;100128.55;111936;1197;61936;-88
2021/10/08 02:24:08;;;;;;;;;;;;;;;4.67;89.72;100132.09;111874;1196;64036;-88
2021/10/08 02:26:34;;;;;;;;;;;;;;;4.65;89.76;100136.55;111851;1196;61912;-87
2021/10/08 02:29:01;;;;;;;;;;;;;;;4.61;89.83;100139.45;111908;1196;61868;-88
2021/10/08 02:31:28;;;;;;;;;;;;;;;4.60;89.84;100141.05;112002;1196;66949;-87
2021/10/08 02:33:55;;;;;;;;;;;;;;;4.59;89.82;100141.58;111913;1196;61843;-87
2021/10/08 02:36:21;;;;;;;;;;;;;;;4.59;89.82;100140.89;111923;1196;61873;-87
2021/10/08 02:38:48;;;;;;;;;;;;;;;4.58;89.78;100144.96;112108;1196;61796;-86
2021/10/08 02:41:15;;;;;;;;;;;;;;;4.58;89.81;100146.55;111939;1196;61932;-88
2021/10/08 02:43:42;;;;;;;;;;;;;;;4.56;89.84;100147.48;111917;1196;65372;-88
2021/10/08 02:46:08;;;;;;;;;;;;;;;4.55;89.95;100146.81;111822;1196;61843;-88
2021/10/08 02:48:35;;;;;;;;;;;;;;;4.54;89.91;100145.79;111894;1196;62653;-89
2021/10/08 02:51:02;;;;;;;;;;;;;;;4.52;89.95;100147.94;111801;1196;61895;-89
2021/10/08 02:53:29;;;;;;;;;;;;;;;4.50;89.91;100150.80;111869;1196;61802;-89
2021/10/08 02:55:56;;;;;;;;;;;;;;;4.49;89.90;100153.46;111970;1196;66842;-88
2021/10/08 02:58:23;;;;;;;;;;;;;;;4.47;89.94;100152.45;111906;1196;61978;-88
2021/10/08 03:00:50;;;;;;;;;;;;;;;4.45;89.95;100154.08;111859;1196;62664;-88
2021/10/08 03:03:16;;;;;;;;;;;;;;;4.44;89.96;100155.69;111861;1196;61855;-87
2021/10/08 03:05:43;;;;;;;;;;;;;;;4.42;89.95;100155.58;112014;1196;61860;-86
2021/10/08 03:08:09;;;;;;;;;;;;;;;4.40;89.94;100156.14;111899;1196;65492;-87
2021/10/08 03:10:36;;;;;;;;;;;;;;;4.38;90.04;100154.77;111946;1196;61888;-87
2021/10/08 03:13:03;;;;;;;;;;;;;;;4.36;90.08;100158.50;111862;1196;62675;-88
2021/10/08 03:15:29;;;;;;;;;;;;;;;4.34;90.06;100157.51;111890;1196;61811;-87
2021/10/08 03:17:56;;;;;;;;;;;;;;;4.32;90.12;100159.33;111877;1196;61776;-87
2021/10/08 03:20:22;;;;;;;;;;;;;;;4.29;90.14;100165.36;111798;1196;66839;-87
2021/10/08 03:22:49;;;;;;;;;;;;;;;4.27;90.25;100165.40;111891;1196;61818;-87
2021/10/08 03:25:16;;;;;;;;;;;;;;;4.24;90.16;100164.41;111903;1196;62365;-88
2021/10/08 03:27:42;;;;;;;;;;;;;;;4.23;90.22;100166.38;111881;1196;61861;-87
2021/10/08 03:30:11;;;;;;;;;;;;;;;4.20;90.28;100166.96;111917;1197;61845;-87
2021/10/08 03:32:37;;;;;;;;;;;;;;;4.18;90.37;100167.87;111933;1196;65570;-86
2021/10/08 03:35:04;;;;;;;;;;;;;;;4.17;90.32;100173.01;112021;1196;61879;-87
2021/10/08 03:37:41;;;;;;;;;;;;;;;4.15;90.35;100174.98;111852;1196;63842;-87
2021/10/08 03:40:10;;;;;;;;;;;;;;;4.13;90.34;100178.02;111934;1196;61924;-87
2021/10/08 03:42:36;;;;;;;;;;;;;;;4.11;90.37;100180.89;111910;1196;62263;-87
2021/10/08 03:45:10;;;;;;;;;;;;;;;4.09;90.37;100180.92;111868;1196;66829;-87
2021/10/08 03:50:19;;;;;;;;;;;;;;;4.04;90.53;100185.23;111898;1196;64022;-86
2021/10/08 03:52:46;;;;;;;;;;;;;;;4.03;90.65;100189.33;111910;1196;61848;-89
2021/10/08 03:55:12;;;;;;;;;;;;;;;4.00;90.70;100188.31;111846;1196;61746;-88
2021/10/08 03:57:39;;;;;;;;;;;;;;;3.99;90.69;100188.70;111907;1196;61811;-89
2021/10/08 04:00:06;;;;;;;;;;;;;;;3.96;90.73;100188.41;111991;1196;62153;-89
2021/10/08 04:02:33;;;;;;;;;;;;;;;3.93;90.88;100187.77;111888;1196;64018;-88
2021/10/08 04:04:59;;;;;;;;;;;;;;;3.91;90.97;100192.54;111953;1196;61876;-87
2021/10/08 04:07:26;;;;;;;;;;;;;;;3.90;90.97;100192.23;112063;1196;61907;-87
2021/10/08 04:09:52;;;;;;;;;;;;;;;3.87;91.03;100196.67;111884;1196;61923;-87
2021/10/08 04:12:19;;;;;;;;;;;;;;;3.84;91.08;100199.02;111861;1196;61831;-87
2021/10/08 04:14:45;;;;;;;;;;;;;;;3.82;91.13;100198.89;111886;1196;62662;-88
2021/10/08 04:17:12;;;;;;;;;;;;;;;3.79;91.20;100198.95;111974;1196;61878;-87
2021/10/08 04:19:38;;;;;;;;;;;;;;;3.79;91.26;100198.95;111964;1196;61848;-87
2021/10/08 04:22:05;;;;;;;;;;;;;;;3.77;91.33;100195.83;111958;1196;65329;-88
2021/10/08 04:24:31;;;;;;;;;;;;;;;3.76;91.49;100197.60;111929;1196;61737;-87
2021/10/08 04:26:58;;;;;;;;;;;;;;;3.76;91.47;100200.60;111802;1196;61773;-88
2021/10/08 04:29:24;;;;;;;;;;;;;;;3.76;91.57;100203.92;112013;1196;61935;-85
2021/10/08 04:31:51;;;;;;;;;;;;;;;3.76;91.64;100206.02;111833;1198;61927;-87
2021/10/08 04:34:17;;;;;;;;;;;;;;;3.76;91.64;100205.16;111922;1196;61802;-87
2021/10/08 04:36:44;;;;;;;;;;;;;;;3.74;91.70;100207.30;111891;1196;61757;-87
2021/10/08 04:39:10;;;;;;;;;;;;;;;3.73;91.82;100212.25;111976;1196;61847;-87
2021/10/08 04:41:37;;;;;;;;;;;;;;;3.72;91.86;100217.52;111930;1196;61863;-87
2021/10/08 04:44:04;;;;;;;;;;;;;;;3.72;91.86;100217.54;111916;1196;61865;-87
2021/10/08 04:46:31;;;;;;;;;;;;;;;3.71;91.95;100217.90;111880;1196;67801;-86
2021/10/08 04:48:57;;;;;;;;;;;;;;;3.70;92.02;100218.63;111918;1196;61866;-87
2021/10/08 04:51:24;;;;;;;;;;;;;;;3.70;92.04;100217.57;111852;1196;63725;-85
2021/10/08 04:53:50;;;;;;;;;;;;;;;3.71;92.10;100220.89;111954;1196;61877;-86
2021/10/08 04:56:17;;;;;;;;;;;;;;;3.71;92.13;100225.11;112025;1196;61870;-89
2021/10/08 04:58:43;;;;;;;;;;;;;;;3.73;92.26;100226.66;111957;1196;61789;-87
2021/10/08 05:01:12;;;;;;;;;;;;;;;3.76;92.28;100228.20;111988;1196;61835;-86
2021/10/08 05:03:39;;;;;;;;;;;;;;;3.78;92.30;100228.67;111906;1196;72642;-87
2021/10/08 05:06:06;;;;;;;;;;;;;;;3.81;92.26;100230.91;111862;1196;61863;-87
2021/10/08 05:08:32;;;;;;;;;;;;;;;3.84;92.21;100236.66;111989;1196;61799;-87
2021/10/08 05:10:59;;;;;;;;;;;;;;;3.87;92.18;100242.91;112063;1196;66803;-87
2021/10/08 05:13:25;;;;;;;;;;;;;;;3.91;92.17;100241.79;111902;1196;61891;-88
2021/10/08 05:15:52;;;;;;;;;;;;;;;3.99;92.14;100243.57;111894;1196;62768;-87
2021/10/08 05:18:18;;;;;;;;;;;;;;;4.09;91.84;100249.17;111844;1196;61983;-87
2021/10/08 05:20:45;;;;;;;;;;;;;;;4.18;91.71;100249.51;111910;1196;61946;-87
2021/10/08 05:23:12;;;;;;;;;;;;;;;4.26;91.51;100247.58;111917;1196;61831;-87
2021/10/08 05:25:38;;;;;;;;;;;;;;;4.34;91.26;100249.16;112096;1196;61839;-88
2021/10/08 05:28:05;;;;;;;;;;;;;;;4.38;91.16;100251.36;111841;1198;64057;-88
2021/10/08 05:30:32;;;;;;;;;;;;;;;4.39;91.20;100251.52;112014;1196;61816;-88
2021/10/08 05:32:58;;;;;;;;;;;;;;;4.41;91.21;100255.70;112061;1196;61871;-87
2021/10/08 05:35:27;;;;;;;;;;;;;;;4.44;91.13;100255.64;112026;1196;61975;-87
2021/10/08 05:37:54;;;;;;;;;;;;;;;4.46;91.07;100257.36;111955;1196;61828;-87
2021/10/08 05:40:20;;;;;;;;;;;;;;;4.50;91.07;100262.55;111974;1196;63809;-87
2021/10/08 05:42:47;;;;;;;;;;;;;;;4.53;90.97;100265.65;111983;1196;61876;-87
2021/10/08 05:45:13;;;;;;;;;;;;;;;4.58;90.97;100266.95;111903;1196;61760;-87
2021/10/08 05:47:40;;;;;;;;;;;;;;;4.62;90.93;100270.38;111881;1196;66636;-87
2021/10/08 05:50:07;;;;;;;;;;;;;;;4.67;90.83;100273.27;111933;1196;61802;-87
2021/10/08 05:52:33;;;;;;;;;;;;;;;4.72;90.78;100274.38;111819;1196;62905;-86
2021/10/08 05:55:00;;;;;;;;;;;;;;;4.75;90.70;100276.08;111998;1196;61838;-87
2021/10/08 05:57:26;;;;;;;;;;;;;;;4.78;90.51;100279.17;111838;1196;61986;-87
2021/10/08 05:59:53;;;;;;;;;;;;;;;4.82;90.51;100284.55;112048;1196;66511;-87
2021/10/08 06:02:20;;;;;;;;;;;;;;;4.84;90.39;100282.56;112009;1196;61816;-87
2021/10/08 06:04:46;;;;;;;;;;;;;;;4.86;90.36;100281.64;112110;1196;62793;-87
2021/10/08 06:07:13;;;;;;;;;;;;;;;4.89;90.30;100285.62;112007;1196;61871;-86
2021/10/08 06:09:44;;;;;;;;;;;;;;;4.93;90.24;100286.42;111865;1196;61795;-86
2021/10/08 06:12:10;;;;;;;;;;;;;;;5.00;90.30;100283.09;112049;1196;66780;-87
2021/10/08 06:14:37;;;;;;;;;;;;;;;5.08;90.14;100279.01;111993;1196;61874;-87
2021/10/08 06:17:03;;;;;;;;;;;;;;;5.21;90.24;100283.27;111972;1196;61898;-89
2021/10/08 06:19:30;;;;;;;;;;;;;;;5.33;90.05;100287.21;112113;1196;61876;-88
2021/10/08 06:21:56;;;;;;;;;;;;;;;5.41;89.95;100289.46;112010;1196;61805;-89
2021/10/08 06:24:23;;;;;;;;;;;;;;;5.53;90.08;100294.30;112008;1196;61970;-88
2021/10/08 06:26:49;;;;;;;;;;;;;;;5.62;89.91;100301.27;112021;1196;62004;-88
2021/10/08 06:29:16;;;;;;;;;;;;;;;5.68;89.65;100307.48;111971;1196;64644;-89
2021/10/08 06:31:43;;;;;;;;;;;;;;;5.73;89.55;100308.23;112019;1196;62375;-89
2021/10/08 06:34:09;;;;;;;;;;;;;;;5.78;89.47;100311.31;111829;1196;61893;-89
2021/10/08 06:36:36;;;;;;;;;;;;;;;5.84;89.39;100311.48;111925;1198;61949;-86
2021/10/08 06:39:03;;;;;;;;;;;;;;;5.90;89.21;100317.14;111896;1196;61880;-87
2021/10/08 06:41:29;;;;;;;;;;;;;;;5.98;89.00;100316.59;111797;1196;64010;-86
2021/10/08 06:43:56;;;;;;;;;;;;;;;6.06;88.91;100322.73;111923;1196;62266;-88
2021/10/08 06:46:22;;;;;;;;;;;;;;;6.13;88.60;100329.27;111997;1196;61759;-88
2021/10/08 06:48:49;;;;;;;;;;;;;;;6.11;88.20;100325.41;111777;1198;66898;-88
2021/10/08 06:51:16;;;;;;;;;;;;;;;6.05;87.95;100321.52;111940;1196;61961;-87
2021/10/08 06:53:42;;;;;;;;;;;;;;;6.05;88.01;100320.49;111899;1196;62658;-87
2021/10/08 06:56:09;;;;;;;;;;;;;;;6.04;88.10;100317.17;111792;1196;61895;-87
2021/10/08 06:58:35;;;;;;;;;;;;;;;6.02;88.12;100318.79;111829;1196;61889;-88
2021/10/08 07:01:02;;;;;;;;;;;;;;;6.01;88.27;100317.41;111882;1196;65474;-87
2021/10/08 07:03:28;;;;;;;;;;;;;;;6.05;88.31;100318.17;111786;1196;62273;-88
2021/10/08 07:05:55;;;;;;;;;;;;;;;6.11;88.11;100318.89;111887;1196;61869;-88
2021/10/08 07:08:21;;;;;;;;;;;;;;;6.17;88.04;100317.84;111906;1196;61767;-88
2021/10/08 07:10:48;;;;;;;;;;;;;;;6.23;87.97;100321.77;111976;1196;61965;-88
2021/10/08 07:13:14;;;;;;;;;;;;;;;6.28;87.97;100324.26;111810;1196;61792;-87
2021/10/08 07:15:41;;;;;;;;;;;;;;;6.39;88.07;100328.01;111939;1196;62120;-88
2021/10/08 07:18:10;;;;;;;;;;;;;;;6.51;87.58;100327.67;111924;1196;61955;-88
2021/10/08 07:20:37;;;;;;;;;;;;;;;6.57;87.07;100330.14;111948;1196;61775;-89
2021/10/08 07:23:05;;;;;;;;;;;;;;;6.63;87.11;100332.27;111958;1196;61908;-88
2021/10/08 07:25:32;;;;;;;;;;;;;;;6.71;87.01;100329.71;111978;1196;65327;-88
2021/10/08 07:27:58;;;;;;;;;;;;;;;6.77;86.67;100332.91;111963;1197;61808;-91
2021/10/08 07:30:25;;;;;;;;;;;;;;;6.79;86.43;100332.66;112019;1197;61860;-89
2021/10/08 07:32:52;;;;;;;;;;;;;;;6.78;86.36;100337.48;111928;1196;61836;-89
2021/10/08 07:35:19;;;;;;;;;;;;;;;6.81;86.49;100336.31;111957;1196;61837;-89
2021/10/08 07:37:46;;;;;;;;;;;;;;;6.88;86.28;100334.33;111723;1198;66865;-89
2021/10/08 07:40:22;;;;;;;;;;;;;;;6.91;86.08;100338.27;112311;1196;61836;-96
2021/10/08 07:45:35;;;;;;;;;;;;;;;6.99;85.96;100342.12;112799;1193;61797;-88
2021/10/08 07:48:17;;;;;;;;;;;;;;;7.06;85.79;100341.73;113024;1193;61787;-95
2021/10/08 07:50:44;;;;;;;;;;;;;;;7.14;85.66;100345.73;112951;1195;65440;-92
2021/10/08 07:53:10;;;;;;;;;;;;;;;7.15;85.29;100343.23;112968;1194;61842;-91
2021/10/08 07:55:37;;;;;;;;;;;;;;;7.14;85.35;100346.43;112742;1196;62697;-83
2021/10/08 07:58:03;;;;;;;;;;;;;;;7.15;85.50;100348.16;112356;1193;61838;-83
2021/10/08 08:00:30;;;;;;;;;;;;;;;7.21;85.56;100351.52;112445;1193;61817;-86
2021/10/08 08:02:56;;;;;;;;;;;;;;;7.28;85.04;100352.88;112496;1193;66689;-84
2021/10/08 08:05:23;;;;;;;;;;;;;;;7.30;85.26;100353.02;112377;1193;61859;-84
2021/10/08 08:07:50;;;;;;;;;;;;;;;7.32;85.25;100352.23;112327;1193;61852;-84
2021/10/08 08:10:17;;;;;;;;;;;;;;;7.42;85.41;100353.16;112354;1193;61830;-84
2021/10/08 08:12:43;;;;;;;;;;;;;;;7.53;84.96;100351.73;112347;1193;61852;-84
2021/10/08 08:15:10;;;;;;;;;;;;;;;7.62;84.89;100349.15;112304;1193;61855;-83
2021/10/08 08:17:37;;;;;;;;;;;;;;;7.71;84.84;100347.95;112336;1193;61858;-83
2021/10/08 08:20:04;;;;;;;;;;;;;;;7.83;84.83;100345.23;112284;1193;63699;-84
2021/10/08 08:22:31;;;;;;;;;;;;;;;7.95;84.82;100346.42;112320;1193;61878;-84
2021/10/08 08:24:58;;;;;;;;;;;;;;;8.05;84.29;100352.13;112331;1193;61938;-83
2021/10/08 08:27:24;;;;;;;;;;;;;;;8.08;83.58;100354.85;112364;1193;61903;-87
2021/10/08 08:29:52;;;;;;;;;;;;;;;8.09;83.40;100347.55;112612;1193;61851;-93
2021/10/08 08:40:16;;;;;;;;;;;;;;;8.28;82.67;100350.42;116230;1174;65870;31
2021/10/08 09:15:45;;;;;;;;;;;;;;;9.53;80.63;100341.77;103204;1173;61335;-94
2021/10/08 09:43:26;;;;;;;;;;;;;;;10.70;79.37;100325.86;116087;1173;60695;31
2021/10/08 10:12:33;;;;;;;;;;;;;;;11.13;73.85;100338.98;114670;1180;61281;31
2021/10/08 10:18:23;;;;;;;;;;;;;;;10.92;73.29;100343.36;116369;1173;65767;-94
2021/10/08 12:58:00;;;;;;;;;;;;;;;12.57;56.81;100328.15;113546;1195;67114;-91
2021/10/08 13:00:39;;;;;;;;;;;;;;;12.59;56.38;100327.51;112447;1196;61876;-95
2021/10/08 13:03:07;;;;;;;;;;;;;;;12.58;55.57;100330.20;112504;1195;64010;-92
2021/10/08 13:05:40;;;;;;;;;;;;;;;12.57;54.62;100330.10;112476;1195;61860;-93
2021/10/08 13:08:10;;;;;;;;;;;;;;;12.55;54.19;100323.60;112352;1194;61810;-89
2021/10/08 13:10:54;;;;;;;;;;;;;;;12.54;54.12;100319.41;112529;1195;66831;-91
2021/10/08 13:13:22;;;;;;;;;;;;;;;12.57;54.48;100316.59;112355;1196;61842;-92
2021/10/08 13:15:49;;;;;;;;;;;;;;;12.60;55.10;100317.81;112188;1196;63377;-91
2021/10/08 13:18:16;;;;;;;;;;;;;;;12.65;54.92;100316.31;112328;1196;61970;-92
2021/10/08 13:20:44;;;;;;;;;;;;;;;12.67;55.20;100320.11;111997;1196;61840;-91
2021/10/08 13:23:12;;;;;;;;;;;;;;;12.69;55.36;100323.36;112503;1195;66774;-91
2021/10/08 13:25:42;;;;;;;;;;;;;;;12.70;54.25;100326.02;112777;1196;61865;-91
2021/10/08 13:28:10;;;;;;;;;;;;;;;12.66;53.61;100319.96;113204;1195;62749;-91
2021/10/08 13:30:37;;;;;;;;;;;;;;;12.64;52.77;100317.61;112476;1196;61959;-94
2021/10/08 13:33:03;;;;;;;;;;;;;;;12.62;53.33;100315.95;112412;1195;61982;-91
2021/10/08 13:35:30;;;;;;;;;;;;;;;12.62;53.61;100314.50;112371;1195;65470;-91
2021/10/08 13:37:57;;;;;;;;;;;;;;;12.62;53.51;100313.60;112424;1196;61866;-92
2021/10/08 13:40:24;;;;;;;;;;;;;;;12.61;53.71;100308.84;112234;1195;62335;-91
2021/10/08 13:42:51;;;;;;;;;;;;;;;12.62;54.07;100310.39;112207;1195;61820;-91
2021/10/08 13:45:19;;;;;;;;;;;;;;;12.63;53.59;100312.85;112228;1196;61938;-91
2021/10/08 13:47:46;;;;;;;;;;;;;;;12.64;53.14;100308.69;112457;1196;65416;-91
2021/10/08 13:50:12;;;;;;;;;;;;;;;12.64;53.14;100308.88;112162;1195;61840;-91
2021/10/08 13:52:39;;;;;;;;;;;;;;;12.66;53.55;100309.85;112209;1195;62633;-91
2021/10/08 13:55:06;;;;;;;;;;;;;;;12.66;52.90;100308.75;112184;1196;61805;-91
2021/10/08 13:57:32;;;;;;;;;;;;;;;12.67;53.68;100309.20;112204;1195;62019;-91
2021/10/08 14:00:00;;;;;;;;;;;;;;;12.68;52.74;100313.27;112267;1195;65488;-92
2021/10/08 14:02:34;;;;;;;;;;;;;;;12.66;52.04;100305.36;112556;1196;61861;-94
2021/10/08 14:10:36;;;;;;;;;;;;;;;12.58;51.84;100306.01;112385;1196;62066;-92
2021/10/08 14:13:03;;;;;;;;;;;;;;;12.56;51.89;100306.48;112652;1196;65730;-93
2021/10/08 14:15:30;;;;;;;;;;;;;;;12.54;51.90;100299.45;112757;1196;62397;-88
2021/10/08 14:17:57;;;;;;;;;;;;;;;12.53;52.19;100295.89;112570;1195;64118;-92
2021/10/08 14:20:24;;;;;;;;;;;;;;;12.52;51.59;100298.11;112586;1196;61886;-92
2021/10/08 14:22:50;;;;;;;;;;;;;;;12.50;52.19;100296.79;112323;1196;61917;-93
2021/10/08 14:25:18;;;;;;;;;;;;;;;12.49;51.93;100294.88;112457;1195;66869;-91
2021/10/08 14:27:45;;;;;;;;;;;;;;;12.47;50.75;100295.36;112711;1195;61804;-94
2021/10/08 14:30:13;;;;;;;;;;;;;;;12.43;50.75;100301.24;112627;1196;62659;-92
2021/10/08 14:32:40;;;;;;;;;;;;;;;12.41;50.65;100298.52;112387;1195;61949;-92
2021/10/08 14:35:09;;;;;;;;;;;;;;;12.39;50.84;100297.73;112556;1196;61872;-91
2021/10/08 14:37:36;;;;;;;;;;;;;;;12.37;51.11;100293.06;112170;1196;65460;-92
2021/10/08 14:40:03;;;;;;;;;;;;;;;12.34;50.42;100297.27;112393;1195;61759;-93
2021/10/08 14:42:31;;;;;;;;;;;;;;;12.32;50.60;100296.84;112337;1196;64072;-92
2021/10/08 14:44:58;;;;;;;;;;;;;;;12.30;51.24;100298.02;112283;1196;61870;-92
2021/10/08 14:47:25;;;;;;;;;;;;;;;12.28;51.20;100291.52;112179;1195;61871;-94
2021/10/08 14:49:52;;;;;;;;;;;;;;;12.25;50.46;100300.98;112315;1196;66933;-92
2021/10/08 14:52:20;;;;;;;;;;;;;;;12.23;50.87;100306.63;112465;1195;61884;-92
2021/10/08 14:57:41;;;;;;;;;;;;;;;12.17;51.01;100300.52;112264;1195;61810;-92
2021/10/08 15:00:08;;;;;;;;;;;;;;;12.12;51.31;100305.23;112465;1195;61803;-91
2021/10/08 15:02:35;;;;;;;;;;;;;;;12.06;51.29;100301.94;112154;1196;67720;-92
2021/10/08 15:05:05;;;;;;;;;;;;;;;12.03;51.29;100305.31;112334;1196;61832;-93
2021/10/08 15:07:31;;;;;;;;;;;;;;;11.99;51.62;100307.30;112187;1195;62648;-91
2021/10/08 15:09:58;;;;;;;;;;;;;;;11.95;51.69;100305.02;112457;1195;61923;-91
2021/10/08 15:12:25;;;;;;;;;;;;;;;11.91;52.17;100311.11;112193;1196;61872;-90
2021/10/08 15:14:51;;;;;;;;;;;;;;;11.88;52.35;100313.94;112556;1196;66976;-92
2021/10/08 15:17:18;;;;;;;;;;;;;;;11.83;52.44;100315.61;112489;1196;61831;-91
2021/10/08 15:19:44;;;;;;;;;;;;;;;11.78;52.46;100316.58;112188;1196;62635;-91
2021/10/08 15:22:11;;;;;;;;;;;;;;;11.73;52.47;100317.54;112285;1195;61858;-93
2021/10/08 15:24:39;;;;;;;;;;;;;;;11.66;52.59;100318.56;112566;1196;61883;-93
2021/10/08 15:27:05;;;;;;;;;;;;;;;11.61;52.06;100320.80;112376;1195;65555;-91
2021/10/08 15:29:32;;;;;;;;;;;;;;;11.57;51.61;100318.87;113604;1195;61667;-92
2021/10/08 15:31:59;;;;;;;;;;;;;;;11.52;51.00;100320.73;113155;1196;64038;-91
2021/10/08 15:34:28;;;;;;;;;;;;;;;11.46;51.40;100323.31;112237;1195;61718;-92
2021/10/08 15:36:56;;;;;;;;;;;;;;;11.39;51.47;100325.60;112800;1195;61759;-91
2021/10/08 15:39:23;;;;;;;;;;;;;;;11.32;51.58;100325.22;112836;1195;67045;-92
2021/10/08 15:41:50;;;;;;;;;;;;;;;11.25;50.84;100335.73;112714;1196;61692;-92
2021/10/08 15:44:18;;;;;;;;;;;;;;;11.18;50.76;100340.32;112787;1196;62723;-90
2021/10/08 15:46:44;;;;;;;;;;;;;;;11.13;50.24;100337.56;112681;1195;61879;-92
2021/10/08 15:49:11;;;;;;;;;;;;;;;11.08;50.43;100341.19;112456;1195;61840;-94
2021/10/08 15:51:38;;;;;;;;;;;;;;;10.99;50.35;100342.83;112177;1195;66875;-93
2021/10/08 15:54:05;;;;;;;;;;;;;;;10.91;49.68;100340.90;112593;1195;61813;-92
2021/10/08 15:56:32;;;;;;;;;;;;;;;10.84;49.43;100343.02;112581;1196;62674;-95
2021/10/08 15:58:59;;;;;;;;;;;;;;;10.77;49.85;100344.21;112201;1196;61866;-91
2021/10/08 16:01:25;;;;;;;;;;;;;;;10.68;49.83;100351.41;112216;1196;61861;-94
2021/10/08 16:03:52;;;;;;;;;;;;;;;10.60;49.50;100348.89;112110;1195;66932;-92
2021/10/08 16:06:18;;;;;;;;;;;;;;;10.53;49.51;100351.14;112270;1195;61850;-94
2021/10/08 16:08:45;;;;;;;;;;;;;;;10.47;49.89;100356.78;112190;1197;64260;-93
2021/10/08 16:11:12;;;;;;;;;;;;;;;10.38;50.20;100354.52;112195;1196;61918;-91
2021/10/08 16:13:39;;;;;;;;;;;;;;;10.29;50.39;100360.77;112202;1195;61743;-93
2021/10/08 16:16:06;;;;;;;;;;;;;;;10.20;50.53;100358.98;112201;1196;65620;-92
2021/10/08 16:18:48;;;;;;;;;;;;;;;10.13;50.48;100368.89;112217;1196;62177;-90
2021/10/08 16:21:14;;;;;;;;;;;;;;;10.05;50.67;100366.73;112211;1196;62614;-93
2021/10/08 16:23:41;;;;;;;;;;;;;;;9.99;50.62;100374.45;112172;1196;61887;-92
2021/10/08 16:26:07;;;;;;;;;;;;;;;9.94;50.93;100373.61;112381;1195;61846;-92
2021/10/08 16:28:34;;;;;;;;;;;;;;;9.86;51.30;100376.23;112450;1196;61836;-92
2021/10/08 16:31:01;;;;;;;;;;;;;;;9.79;51.41;100379.53;112179;1196;61849;-93
2021/10/08 16:33:28;;;;;;;;;;;;;;;9.73;51.57;100380.19;112342;1196;63696;-93
2021/10/08 16:35:56;;;;;;;;;;;;;;;9.66;51.77;100379.58;112539;1196;61831;-93
2021/10/08 16:38:23;;;;;;;;;;;;;;;9.59;51.98;100386.04;112237;1195;61804;-93
2021/10/08 16:40:49;;;;;;;;;;;;;;;9.54;52.13;100389.10;112388;1196;66916;-92
2021/10/08 16:43:16;;;;;;;;;;;;;;;9.48;52.27;100388.96;112174;1195;61782;-92
2021/10/08 16:45:42;;;;;;;;;;;;;;;9.43;52.38;100388.98;112348;1196;63808;-93
2021/10/08 16:48:09;;;;;;;;;;;;;;;9.38;52.74;100392.02;112405;1195;61865;-91
2021/10/08 16:50:36;;;;;;;;;;;;;;;9.32;52.72;100391.56;112426;1196;61876;-90
2021/10/08 16:53:04;;;;;;;;;;;;;;;9.27;53.02;100395.50;112563;1196;65822;-92
2021/10/08 16:55:31;;;;;;;;;;;;;;;9.21;53.23;100398.20;112329;1197;61826;-92
2021/10/08 16:57:58;;;;;;;;;;;;;;;9.16;53.38;100394.84;112193;1196;63975;-93
2021/10/08 17:00:27;;;;;;;;;;;;;;;9.12;53.66;100393.58;112214;1196;61914;-90